Time;durP1;ratioP1;P1;durP2;ratioP2;P2;SDS_P1;SDS_P2;PMS_P1;PMS_P2;Temp;Humidity;BMP_temperature;BMP_pressure;BME280_temperature;BME280_humidity;BME280_pressure;Samples;Min_cycle;Max_cycle;Signal;HPM_P1;HPM_P2
2021/09/09 00:02:55;;;;;;;1.10;0.40;;;23.40;50.50;;;;;;21058332;27;80790;-72
2021/09/09 00:12:57;;;;;;;2.53;0.43;;;23.30;50.80;;;;;;21055664;27;82108;-70
2021/09/09 00:22:59;;;;;;;0.93;0.50;;;23.30;50.80;;;;;;21055389;27;80531;-69
2021/09/09 00:33:02;;;;;;;2.65;0.47;;;23.40;50.40;;;;;;21037085;27;82434;-71
2021/09/09 00:43:04;;;;;;;0.93;0.40;;;23.30;50.80;;;;;;21054436;27;80294;-69
2021/09/09 00:53:07;;;;;;;2.20;0.63;;;23.40;50.30;;;;;;21053417;27;81795;-69
2021/09/09 01:03:08;;;;;;;2.63;0.95;;;23.30;50.70;;;;;;21051968;27;80726;-71
2021/09/09 01:13:11;;;;;;;0.88;0.40;;;23.20;51.20;;;;;;21051445;27;81170;-70
2021/09/09 01:23:13;;;;;;;1.90;0.30;;;23.10;51.50;;;;;;21054481;27;80956;-71
2021/09/09 01:33:15;;;;;;;5.63;0.68;;;23.00;51.60;;;;;;21066926;27;80757;-70
2021/09/09 01:43:19;;;;;;;1.58;0.40;;;22.90;54.20;;;;;;21066606;27;81686;-71
2021/09/09 01:53:23;;;;;;;1.13;0.30;;;22.80;53.70;;;;;;21047905;27;80751;-70
2021/09/09 02:03:25;;;;;;;0.93;0.30;;;22.60;53.90;;;;;;21065108;27;80771;-70
2021/09/09 02:13:30;;;;;;;0.70;0.30;;;22.60;53.50;;;;;;21064377;27;81924;-70
2021/09/09 02:23:34;;;;;;;1.90;0.57;;;22.50;53.70;;;;;;21063636;27;80625;-69
2021/09/09 02:33:37;;;;;;;1.05;0.63;;;22.50;53.90;;;;;;21027338;27;81966;-69
2021/09/09 02:43:40;;;;;;;1.60;0.50;;;22.60;53.70;;;;;;21010343;27;80027;-71
2021/09/09 02:53:44;;;;;;;2.40;0.98;;;22.40;54.00;;;;;;20976555;27;80812;-70
2021/09/09 03:03:47;;;;;;;1.40;0.50;;;22.30;54.30;;;;;;20940980;27;81769;-70
2021/09/09 03:14:09;;;;;;;1.38;0.45;;;22.20;54.80;;;;;;20974955;27;80664;-71
2021/09/09 03:24:30;;;;;;;3.83;0.40;;;22.30;54.60;;;;;;20959660;27;82433;-72
2021/09/09 03:34:51;;;;;;;5.33;1.33;;;22.40;54.50;;;;;;20974281;27;80555;-71
2021/09/09 03:45:12;;;;;;;3.30;0.43;;;22.30;56.40;;;;;;20972852;27;82589;-69
2021/09/09 03:55:28;;;;;;;1.48;0.65;;;22.20;57.10;;;;;;20956888;27;80762;-71
2021/09/09 04:05:36;;;;;;;2.50;0.47;;;21.90;57.20;;;;;;20977997;27;80376;-67
2021/09/09 04:15:48;;;;;;;3.17;0.70;;;21.70;58.40;;;;;;20954371;27;80721;-68
2021/09/09 04:26:03;;;;;;;2.35;0.60;;;21.70;58.80;;;;;;20952320;27;81753;-70
2021/09/09 04:36:16;;;;;;;6.22;0.80;;;21.60;58.60;;;;;;20971332;27;80878;-69
2021/09/09 04:46:29;;;;;;;3.05;0.80;;;21.60;58.40;;;;;;20968866;27;79826;-70
2021/09/09 04:56:39;;;;;;;1.60;0.77;;;21.70;57.70;;;;;;20951273;27;80849;-71
2021/09/09 05:06:56;;;;;;;4.65;0.90;;;21.80;57.40;;;;;;20953464;27;80780;-71
2021/09/09 05:17:09;;;;;;;3.63;0.82;;;21.80;57.30;;;;;;20951639;27;80091;-70
2021/09/09 05:27:18;;;;;;;3.28;1.33;;;21.70;57.50;;;;;;20967693;27;79992;-71
2021/09/09 05:37:27;;;;;;;2.10;0.98;;;21.60;58.60;;;;;;20981283;27;81881;-68
2021/09/09 05:47:30;;;;;;;5.15;1.02;;;21.60;58.40;;;;;;21039238;27;81174;-71
2021/09/09 05:57:31;;;;;;;3.80;0.95;;;21.50;58.50;;;;;;21036340;27;82090;-70
2021/09/09 06:07:35;;;;;;;2.67;1.00;;;21.50;58.80;;;;;;21035697;27;81302;-73
2021/09/09 06:17:38;;;;;;;4.03;0.85;;;21.40;59.10;;;;;;21054745;27;80920;-67
2021/09/09 06:27:41;;;;;;;4.50;1.35;;;21.50;59.20;;;;;;21054822;27;81929;-68
2021/09/09 06:37:43;;;;;;;5.10;0.93;;;21.60;58.90;;;;;;21036304;27;81164;-69
2021/09/09 06:47:45;;;;;;;9.50;1.42;;;21.60;59.10;;;;;;21035066;27;81156;-67
2021/09/09 06:57:47;;;;;;;2.72;1.02;;;21.70;59.00;;;;;;21033517;27;82012;-68
2021/09/09 07:07:50;;;;;;;5.68;1.40;;;22.00;58.20;;;;;;21031116;27;81617;-68
2021/09/09 07:17:54;;;;;;;6.85;1.38;;;22.20;58.00;;;;;;21043539;27;80384;-68
2021/09/09 07:27:58;;;;;;;5.05;1.20;;;22.40;57.40;;;;;;21048473;27;81095;-68
2021/09/09 07:38:03;;;;;;;3.15;0.98;;;22.80;56.10;;;;;;21049830;27;82348;-68
2021/09/09 07:48:07;;;;;;;5.47;1.60;;;23.20;55.20;;;;;;21031021;27;82004;-68
2021/09/09 07:58:16;;;;;;;3.08;1.10;;;23.20;55.30;;;;;;21021840;27;81522;-68
2021/09/09 08:08:20;;;;;;;11.48;1.58;;;23.30;55.00;;;;;;21019362;27;80379;-68
2021/09/09 08:18:24;;;;;;;8.70;1.40;;;24.10;53.10;;;;;;21044659;27;81385;-69
2021/09/09 08:28:26;;;;;;;2.60;1.40;;;24.60;51.70;;;;;;21026479;27;81790;-68
2021/09/09 08:38:29;;;;;;;2.65;0.80;;;25.00;50.50;;;;;;21043563;27;81485;-69
2021/09/09 08:48:32;;;;;;;5.28;1.50;;;25.90;48.40;;;;;;21043650;27;81403;-69
2021/09/09 08:58:36;;;;;;;7.13;1.48;;;26.00;47.60;;;;;;21021251;27;81513;-66
2021/09/09 09:08:58;;;;;;;6.32;1.10;;;26.50;46.80;;;;;;21035845;27;81907;-66
2021/09/09 09:19:01;;;;;;;4.28;1.35;;;26.80;46.70;;;;;;21041225;27;82081;-68
2021/09/09 09:29:04;;;;;;;3.70;1.52;;;28.20;43.30;;;;;;21038776;27;81198;-66
2021/09/09 09:39:16;;;;;;;4.40;1.38;;;28.40;43.50;;;;;;21033325;27;81469;-64
2021/09/09 09:49:28;;;;;;;2.47;1.38;;;28.50;42.80;;;;;;21050129;27;80915;-64
2021/09/09 09:59:31;;;;;;;4.65;1.42;;;28.90;42.80;;;;;;21034262;27;81911;-65
2021/09/09 10:09:35;;;;;;;8.10;2.45;;;29.20;41.40;;;;;;21035474;27;81915;-64
2021/09/09 10:19:38;;;;;;;6.18;1.00;;;29.80;39.30;;;;;;21053155;27;80659;-67
2021/09/09 10:29:41;;;;;;;3.00;1.25;;;32.60;34.40;;;;;;21051370;27;81112;-64
2021/09/09 10:39:46;;;;;;;3.80;1.30;;;33.60;32.60;;;;;;21049183;27;81254;-65
2021/09/09 10:50:01;;;;;;;4.97;1.10;;;35.70;29.50;;;;;;21051550;27;80899;-69
2021/09/09 11:00:05;;;;;;;3.13;0.75;;;38.00;26.60;;;;;;21031366;27;81929;-64
2021/09/09 11:10:09;;;;;;;5.38;1.17;;;38.30;25.50;;;;;;21031506;27;82682;-67
2021/09/09 11:20:15;;;;;;;4.88;1.05;;;42.10;21.80;;;;;;21032436;27;81585;-67
2021/09/09 11:30:18;;;;;;;3.10;1.17;;;44.90;19.50;;;;;;21031832;27;81999;-66
2021/09/09 11:40:21;;;;;;;1.38;0.80;;;44.00;19.50;;;;;;21037993;27;81381;-67
2021/09/09 11:50:24;;;;;;;2.95;0.98;;;44.50;18.80;;;;;;21029952;27;81097;-66
2021/09/09 12:00:26;;;;;;;2.97;0.90;;;39.20;23.10;;;;;;21027873;27;81490;-69
2021/09/09 12:10:29;;;;;;;4.43;1.08;;;33.40;29.30;;;;;;21044369;27;82012;-67
2021/09/09 12:20:33;;;;;;;1.77;1.17;;;31.60;32.30;;;;;;21026917;27;81816;-67
2021/09/09 12:30:40;;;;;;;2.53;1.15;;;31.00;33.00;;;;;;21045404;27;80855;-68
2021/09/09 12:40:47;;;;;;;2.65;1.10;;;30.60;34.20;;;;;;21023467;27;80545;-68
2021/09/09 12:51:01;;;;;;;7.90;1.70;;;30.80;34.60;;;;;;21037142;27;79844;-68
2021/09/09 13:01:04;;;;;;;2.53;0.95;;;32.40;32.10;;;;;;21054633;27;82021;-68
2021/09/09 13:11:08;;;;;;;4.15;1.20;;;34.20;29.90;;;;;;21035598;27;80979;-70
2021/09/09 13:21:15;;;;;;;4.50;1.10;;;34.60;29.40;;;;;;21059538;27;80708;-66
2021/09/09 13:31:20;;;;;;;3.13;1.23;;;32.10;32.30;;;;;;21051234;27;80756;-66
2021/09/09 13:41:24;;;;;;;4.07;1.30;;;30.90;34.50;;;;;;21050597;27;80927;-70
2021/09/09 13:51:28;;;;;;;2.97;1.08;;;33.00;31.60;;;;;;21050085;27;81309;-69
2021/09/09 14:01:31;;;;;;;3.70;1.00;;;34.50;29.50;;;;;;21067835;27;80599;-69
2021/09/09 14:11:35;;;;;;;1.73;0.90;;;33.90;30.10;;;;;;21048791;27;80271;-67
2021/09/09 14:21:39;;;;;;;4.97;1.55;;;35.20;28.20;;;;;;21048469;27;80691;-70
2021/09/09 14:31:41;;;;;;;2.50;0.90;;;37.50;25.10;;;;;;21065959;27;80609;-68
2021/09/09 14:41:44;;;;;;;3.25;0.90;;;39.20;23.40;;;;;;21065923;27;81831;-68
2021/09/09 14:51:46;;;;;;;4.95;1.25;;;39.40;22.70;;;;;;21063140;27;82053;-70
2021/09/09 15:01:49;;;;;;;1.88;1.40;;;43.50;19.00;;;;;;21039975;27;80368;-69
2021/09/09 15:11:52;;;;;;;3.28;1.92;;;46.30;17.30;;;;;;21044300;27;80081;-68
2021/09/09 15:21:57;;;;;;;1.40;1.20;;;46.50;17.10;;;;;;21045781;27;81719;-70
2021/09/09 15:32:00;;;;;;;4.60;1.58;;;40.40;21.00;;;;;;21062407;27;81677;-70
2021/09/09 15:42:05;;;;;;;4.88;1.05;;;39.60;21.30;;;;;;21059675;27;80944;-72
2021/09/09 15:52:07;;;;;;;2.78;0.90;;;36.90;24.40;;;;;;21061091;27;79996;-74
2021/09/09 16:02:10;;;;;;;2.97;1.30;;;34.50;26.00;;;;;;21058314;27;81783;-72
2021/09/09 16:12:15;;;;;;;3.33;1.10;;;32.90;27.90;;;;;;21040837;27;81991;-73
2021/09/09 16:22:18;;;;;;;2.70;0.65;;;34.20;26.30;;;;;;21058146;27;80738;-70
2021/09/09 16:32:20;;;;;;;1.92;1.00;;;32.60;28.50;;;;;;21057340;27;80829;-71
2021/09/09 16:42:22;;;;;;;1.88;0.70;;;31.10;30.40;;;;;;21057137;27;80814;-70
2021/09/09 16:52:24;;;;;;;4.68;2.00;;;30.20;32.10;;;;;;21037303;27;80630;-70
2021/09/09 17:02:26;;;;;;;2.95;1.08;;;30.30;32.20;;;;;;21038106;27;81772;-72
2021/09/09 17:12:28;;;;;;;3.47;0.90;;;30.80;31.10;;;;;;21055946;27;81484;-68
2021/09/09 17:22:30;;;;;;;1.30;0.60;;;30.70;31.20;;;;;;21055928;27;81886;-70
2021/09/09 17:32:32;;;;;;;1.98;0.57;;;30.20;30.90;;;;;;21033953;27;80760;-69
2021/09/09 17:42:34;;;;;;;2.83;0.55;;;30.00;30.90;;;;;;21050042;27;81951;-69
2021/09/09 17:52:36;;;;;;;2.70;0.98;;;29.00;31.50;;;;;;21047473;27;80779;-69
2021/09/09 18:02:37;;;;;;;3.90;1.38;;;28.30;33.10;;;;;;21046036;27;80790;-69
2021/09/09 18:12:40;;;;;;;2.45;0.60;;;28.00;33.40;;;;;;21062174;27;80739;-72
2021/09/09 18:22:41;;;;;;;15.45;3.83;;;27.70;33.40;;;;;;21065171;27;82173;-70
2021/09/09 18:32:44;;;;;;;4.18;0.98;;;27.50;39.00;;;;;;21064242;27;80736;-68
2021/09/09 18:42:47;;;;;;;1.60;0.70;;;27.20;36.50;;;;;;21064220;27;81688;-68
2021/09/09 18:52:49;;;;;;;2.58;0.88;;;27.00;35.50;;;;;;21060362;27;82263;-67
2021/09/09 19:02:50;;;;;;;3.28;0.95;;;26.70;36.10;;;;;;21039915;27;80922;-69
2021/09/09 19:12:52;;;;;;;4.07;0.85;;;26.60;36.40;;;;;;21061528;27;81661;-69
2021/09/09 19:22:55;;;;;;;6.78;1.60;;;26.70;36.80;;;;;;21059993;27;80803;-70
2021/09/09 19:32:57;;;;;;;2.15;1.00;;;26.40;37.00;;;;;;21041289;27;80498;-68
2021/09/09 19:43:01;;;;;;;2.75;0.93;;;26.20;37.60;;;;;;21058240;27;81871;-74
2021/09/09 19:53:04;;;;;;;3.47;1.00;;;26.00;38.00;;;;;;21058255;27;80852;-74
2021/09/09 20:03:05;;;;;;;3.50;1.27;;;26.00;38.30;;;;;;21038362;27;80566;-74
2021/09/09 20:13:07;;;;;;;4.05;1.40;;;25.90;38.50;;;;;;21040319;27;81784;-71
2021/09/09 20:23:09;;;;;;;5.88;1.70;;;25.80;39.10;;;;;;21039048;27;80756;-72
2021/09/09 20:33:11;;;;;;;3.03;1.63;;;25.70;39.60;;;;;;21039919;27;81643;-74
2021/09/09 20:43:14;;;;;;;29.77;2.58;;;25.60;40.00;;;;;;21055497;27;80844;-72
2021/09/09 20:53:16;;;;;;;3.63;1.60;;;25.50;40.50;;;;;;21055243;27;81894;-72
2021/09/09 21:03:18;;;;;;;4.53;1.30;;;25.30;41.10;;;;;;21054289;27;81849;-71
2021/09/09 21:13:20;;;;;;;10.07;2.38;;;25.10;41.60;;;;;;21055241;27;80877;-70
2021/09/09 21:23:23;;;;;;;2.90;1.00;;;25.00;42.10;;;;;;21036807;27;81903;-73
2021/09/09 21:33:25;;;;;;;5.13;1.45;;;24.90;42.60;;;;;;21053544;27;80758;-73
2021/09/09 21:43:27;;;;;;;4.88;1.45;;;24.90;42.80;;;;;;21044071;27;81095;-73
2021/09/09 21:53:28;;;;;;;6.40;1.48;;;24.70;43.40;;;;;;21033039;27;80739;-72
2021/09/09 22:03:31;;;;;;;2.55;1.33;;;24.50;43.80;;;;;;21066465;27;81716;-72
2021/09/09 22:13:33;;;;;;;6.63;1.33;;;24.40;43.90;;;;;;21067620;27;81870;-71
2021/09/09 22:23:36;;;;;;;2.63;1.15;;;24.20;44.50;;;;;;21046742;27;81860;-71
2021/09/09 22:33:38;;;;;;;5.22;1.10;;;24.10;44.20;;;;;;21063422;27;79854;-73
2021/09/09 22:43:40;;;;;;;5.07;1.73;;;23.90;44.40;;;;;;21062368;27;81884;-77
2021/09/09 22:53:41;;;;;;;2.63;1.10;;;23.90;44.60;;;;;;21060906;27;80893;-74
2021/09/09 23:03:43;;;;;;;3.80;1.38;;;24.10;44.40;;;;;;21041805;27;81154;-72
2021/09/09 23:13:45;;;;;;;6.32;1.73;;;24.20;44.40;;;;;;21060040;27;80815;-72
2021/09/09 23:23:47;;;;;;;3.78;1.30;;;24.20;44.30;;;;;;21059193;27;81879;-73
2021/09/09 23:33:49;;;;;;;3.63;1.40;;;24.20;44.80;;;;;;21039279;27;80732;-74
2021/09/09 23:43:51;;;;;;;2.90;1.52;;;24.10;45.20;;;;;;21058533;27;80746;-72
2021/09/09 23:53:53;;;;;;;2.45;1.60;;;24.00;45.20;;;;;;21040284;27;80804;-73
